Dodge City Regional Airport
KDDC : now visible

Airfield :











YOU CAN JOIN US ON...

 
LOGIN :

Register | Disclaimer

   EN    FR    IT 

 









Legend :    VFR   Marginal VFR   IFR   Intensive IFR   Very Intensive IFR
Visi :
Ceiling :
>= 8 km
>= 3000ft
5 to 8 km
1000 to 3000 ft
1500m to 5 km
500 to 1000 ft
800 to 1500m
200 to 500 ft
< 800m
< 200 ft
Symbols :   Thunderstorms  Fog  Heavy snow  Heavy precipitations  Wind > 20 kt







- Airport Elevation : 2594 ft
- IATA code : DDC


KDDC - Dodge City Regional

CURRENT METAR :
  • 212052Z AUTO 18015G25KT 10SM SCT060 33/18 A2984 RMK AO2 PK WND 19028/2006 SLP070 T03280178 58022

EXPIRED METARs :
  • 211952Z AUTO 21015G28KT 9SM FEW055 32/17 A2987 RMK AO2 PK WND 21029/1858 SLP079 T03220172
  • 211852Z AUTO 21016G26KT 9SM FEW047 32/18 A2989 RMK AO2 PK WND 21032/1758 SLP086 T03170178

TAF KDDC
Valid from the 21 at 21:00 until the 22 at 18:00 UTC


212110Z 2121/2218 20015G25KT P6SM SCT070
TEMPO 2123/2203 3SM -TSRA SCT040CB BKN200
FM220300 15013KT P6SM BKN150
FM221200 36020G30KT P6SM OVC040
No reported NOTAMs for that airfield.



MET'MAP, your aeronautical weather chart ! - Copyright ORBIFLY December 2007 - Disclaimer

ORBIFLY MET'MAP TEAM :

Programming & Development : Alexandra Zaïnal
Concept & Development : Baudouin d'Aumeries
Co-Development & Prog : Marc-Olivier Méhu
Technical & hardware support : Manuel Goepfert

Contact : metmap@orbifly.com




SOURCES & CREDITS :

   NOAA       Earth
Advisory